• Join FlightAware (Why Join?)
  • Login
  • US Flag 
04:30AM EST


 

Airport Tracker/Info


-or-


 

Live Flight TrackerFlight Track Log ✈ EJA565 ✈ 18-Jun-2013 ✈ KCMH - KBTL

Flight Track Log - Related Links

Times and Time Zones

All times are in EDT time to prevent confusion due to time zone crossing. See the EJA565 flight status page for this flight to view local times or setup timezone preferences in your user account.

Time Position Orientation Groundspeed Altitude Reporting Facility
EDT Latitude Longitude Course Direction KTS MPH feet Rate Location/Type
03:15PM 40.0028 -82.9047 267° West 131 151 1,500  Level Indianapolis Center
03:15PM 40.0008 -82.9531 267° West 203 234 3,700 3,480 Climbing Indianapolis Center
03:17PM 40.0028 -83.0322 272° West 213 245 7,600 2,940 Climbing Indianapolis Center
03:18PM 40.0674 -83.0918 325° Northwest  Level Estimated
03:18PM 40.0456 -83.0867 325° Northwest 256 295 9,900  Level Indianapolis Center
03:19PM 40.1289 -83.0969 355° North 293 337 12,600 2,700 Climbing Indianapolis Center
03:20PM 40.2217 -83.1394 341° North 310 357 15,500 1,620 Climbing Indianapolis Center
03:21PM 40.3003 -83.2061 327° Northwest 330 380 16,000 240 Climbing Indianapolis Center
03:22PM 40.3861 -83.2775 328° Northwest 359 413 16,000  Level Indianapolis Center
03:23PM 40.4719 -83.3483 328° Northwest 361 415 16,000 -60 Level Indianapolis Center
03:24PM 40.5567 -83.4206 327° Northwest 360 414 15,900 -60 Descending Indianapolis Center
03:25PM 40.6369 -83.4867 328° Northwest 343 395 15,900  Level Indianapolis Center
03:26PM 40.7144 -83.5528 327° Northwest 333 383 15,900  Level Indianapolis Center
03:27PM 40.8056 -83.6294 328° Northwest 331 381 15,900  Level Indianapolis Center
03:28PM 40.8842 -83.6953 328° Northwest 332 382 15,900  Level Indianapolis Center
03:29PM 40.9619 -83.7619 327° Northwest 330 380 15,900  Level Indianapolis Center
03:30PM 41.0389 -83.8286 327° Northwest 329 379 15,900  Level Indianapolis Center
03:31PM 41.1183 -83.9011 325° Northwest 327 376 15,900 60 Level Indianapolis Center
03:31PM 41.1558 -83.9353 326° Northwest 329 379 16,000 60 Climbing Chicago Center
03:33PM 41.2333 -84.0033 327° Northwest 334 384 16,000  Level Chicago Center
03:34PM 41.3094 -84.0722 326° Northwest 334 384 16,000  Level Chicago Center
03:35PM 41.3842 -84.1419 325° Northwest 332 382 16,000  Level Chicago Center
03:36PM 41.4761 -84.2242 326° Northwest 334 384 16,000  Level Chicago Center
03:37PM 41.5444 -84.3011 320° Northwest 327 376 16,000 -540 Level Chicago Center
03:38PM 41.6008 -84.4003 307° West 335 386 14,900 -1,260 Descending Chicago Center
03:39PM 41.6581 -84.5028 307° West 344 396 13,400 -1,500 Descending Chicago Center
03:40PM 41.7131 -84.6014 307° West 337 388 11,800 -1,200 Descending Chicago Center
03:41PM 41.7819 -84.7081 311° West 324 373 11,000 -420 Descending Chicago Center
03:42PM 41.8514 -84.7764 324° Northwest 315 362 11,000 -540 Level Chicago Center
03:43PM 41.9200 -84.8464 323° Northwest 314 361 10,000 -540 Descending Chicago Center
03:44PM 41.9861 -84.9356 315° West 326 375 10,000  Level Chicago Center
03:45PM 42.0461 -85.0278 311° West 330 380 10,000 -660 Level Chicago Center
03:46PM 42.1064 -85.1247 310° West 302 348 8,700 -2,100 Descending Chicago Center
03:47PM 42.1536 -85.2028 309° West 276 318 5,700 -2,520 Descending Chicago Center
03:48PM 42.2000 -85.2800 309° West 270 311 3,500 -1,620 Descending Chicago Center
03:49PM 42.2472 -85.3114 334° Northwest 217 250 2,400 -1,020 Descending Chicago Center
03:50PM 42.2817 -85.2869 28° Northeast 166 191 1,400 -1,020 Descending Chicago Center